sensor_id;sensor_type;location;lat;lon;timestamp;pressure;altitude;pressure_sealevel;temperature;humidity
37200;BME280;23096;50.892;16.746;2022-07-23T00:00:59;99384.64;;;22.75;50.76
37200;BME280;23096;50.892;16.746;2022-07-23T00:03:25;99387.00;;;22.78;50.87
37200;BME280;23096;50.892;16.746;2022-07-23T00:05:52;99388.90;;;22.82;50.88
37200;BME280;23096;50.892;16.746;2022-07-23T00:08:18;99385.72;;;22.67;50.81
37200;BME280;23096;50.892;16.746;2022-07-23T00:10:44;99387.88;;;22.62;51.01
37200;BME280;23096;50.892;16.746;2022-07-23T00:13:10;99384.06;;;22.55;50.91
37200;BME280;23096;50.892;16.746;2022-07-23T00:15:37;99388.63;;;22.42;50.93
37200;BME280;23096;50.892;16.746;2022-07-23T00:18:03;99384.95;;;22.27;51.06
37200;BME280;23096;50.892;16.746;2022-07-23T00:20:30;99388.25;;;22.24;51.33
37200;BME280;23096;50.892;16.746;2022-07-23T00:22:56;99390.88;;;22.18;51.27
37200;BME280;23096;50.892;16.746;2022-07-23T00:25:23;99384.67;;;22.02;51.37
37200;BME280;23096;50.892;16.746;2022-07-23T00:27:49;99388.94;;;21.92;51.54
37200;BME280;23096;50.892;16.746;2022-07-23T00:30:15;99383.24;;;21.92;51.83
37200;BME280;23096;50.892;16.746;2022-07-23T00:32:54;99383.84;;;22.01;52.00
37200;BME280;23096;50.892;16.746;2022-07-23T00:35:20;99389.09;;;22.07;52.09
37200;BME280;23096;50.892;16.746;2022-07-23T00:37:47;99378.70;;;22.11;52.11
37200;BME280;23096;50.892;16.746;2022-07-23T00:40:14;99375.27;;;22.05;52.09
37200;BME280;23096;50.892;16.746;2022-07-23T00:42:41;99370.02;;;21.99;52.12
37200;BME280;23096;50.892;16.746;2022-07-23T00:45:09;99369.64;;;21.98;52.24
37200;BME280;23096;50.892;16.746;2022-07-23T00:47:36;99369.88;;;21.95;52.22
37200;BME280;23096;50.892;16.746;2022-07-23T00:50:06;99376.80;;;21.85;52.30
37200;BME280;23096;50.892;16.746;2022-07-23T00:52:34;99376.31;;;21.80;52.44
37200;BME280;23096;50.892;16.746;2022-07-23T00:55:03;99387.17;;;21.81;52.63
37200;BME280;23096;50.892;16.746;2022-07-23T00:57:30;99384.55;;;21.81;52.64
37200;BME280;23096;50.892;16.746;2022-07-23T00:59:57;99370.24;;;21.79;52.80
37200;BME280;23096;50.892;16.746;2022-07-23T01:02:26;99371.89;;;21.75;52.84
37200;BME280;23096;50.892;16.746;2022-07-23T01:04:53;99380.72;;;21.74;52.98
37200;BME280;23096;50.892;16.746;2022-07-23T01:07:20;99382.74;;;21.70;53.01
37200;BME280;23096;50.892;16.746;2022-07-23T01:09:46;99387.84;;;21.66;53.15
37200;BME280;23096;50.892;16.746;2022-07-23T01:12:13;99386.08;;;21.67;53.27
37200;BME280;23096;50.892;16.746;2022-07-23T01:14:39;99393.94;;;21.67;53.33
37200;BME280;23096;50.892;16.746;2022-07-23T01:17:05;99389.75;;;21.70;53.46
37200;BME280;23096;50.892;16.746;2022-07-23T01:19:32;99387.50;;;21.71;53.55
37200;BME280;23096;50.892;16.746;2022-07-23T01:22:01;99383.58;;;21.76;53.74
37200;BME280;23096;50.892;16.746;2022-07-23T01:24:29;99376.69;;;21.87;53.86
37200;BME280;23096;50.892;16.746;2022-07-23T01:26:57;99363.80;;;21.83;53.67
37200;BME280;23096;50.892;16.746;2022-07-23T01:29:23;99372.86;;;21.79;53.67
37200;BME280;23096;50.892;16.746;2022-07-23T01:31:50;99378.55;;;21.73;53.66
37200;BME280;23096;50.892;16.746;2022-07-23T01:34:16;99378.55;;;21.62;53.70
37200;BME280;23096;50.892;16.746;2022-07-23T01:36:42;99376.40;;;21.56;53.78
37200;BME280;23096;50.892;16.746;2022-07-23T01:39:10;99375.91;;;21.56;53.94
37200;BME280;23096;50.892;16.746;2022-07-23T01:41:37;99376.14;;;21.59;54.03
37200;BME280;23096;50.892;16.746;2022-07-23T01:44:03;99376.73;;;21.57;54.03
37200;BME280;23096;50.892;16.746;2022-07-23T01:46:30;99371.50;;;21.57;54.18
37200;BME280;23096;50.892;16.746;2022-07-23T01:48:56;99366.52;;;21.59;54.21
37200;BME280;23096;50.892;16.746;2022-07-23T01:51:27;99360.19;;;21.56;54.25
37200;BME280;23096;50.892;16.746;2022-07-23T01:53:55;99361.88;;;21.57;54.40
37200;BME280;23096;50.892;16.746;2022-07-23T01:56:21;99357.80;;;21.59;54.49
37200;BME280;23096;50.892;16.746;2022-07-23T01:58:49;99344.13;;;21.61;54.57
37200;BME280;23096;50.892;16.746;2022-07-23T02:01:16;99344.84;;;21.63;54.60
37200;BME280;23096;50.892;16.746;2022-07-23T02:03:42;99339.33;;;21.60;54.57
37200;BME280;23096;50.892;16.746;2022-07-23T02:06:09;99341.84;;;21.56;54.65
37200;BME280;23096;50.892;16.746;2022-07-23T02:08:35;99348.28;;;21.58;54.82
37200;BME280;23096;50.892;16.746;2022-07-23T02:11:02;99335.66;;;21.63;54.90
37200;BME280;23096;50.892;16.746;2022-07-23T02:13:28;99337.91;;;21.62;54.82
37200;BME280;23096;50.892;16.746;2022-07-23T02:15:55;99349.93;;;21.59;54.83
37200;BME280;23096;50.892;16.746;2022-07-23T02:18:22;99340.41;;;21.52;54.88
37200;BME280;23096;50.892;16.746;2022-07-23T02:20:53;99344.78;;;21.46;54.89
37200;BME280;23096;50.892;16.746;2022-07-23T02:23:21;99356.66;;;21.44;55.00
37200;BME280;23096;50.892;16.746;2022-07-23T02:25:48;99351.67;;;21.41;55.02
37200;BME280;23096;50.892;16.746;2022-07-23T02:28:14;99342.61;;;21.40;55.13
37200;BME280;23096;50.892;16.746;2022-07-23T02:30:42;99343.32;;;21.42;55.24
37200;BME280;23096;50.892;16.746;2022-07-23T02:33:10;99339.20;;;21.45;55.34
37200;BME280;23096;50.892;16.746;2022-07-23T02:35:38;99330.26;;;21.48;55.41
37200;BME280;23096;50.892;16.746;2022-07-23T02:38:06;99322.28;;;21.49;55.44
37200;BME280;23096;50.892;16.746;2022-07-23T02:40:35;99336.93;;;21.52;55.48
37200;BME280;23096;50.892;16.746;2022-07-23T02:43:02;99345.87;;;21.49;55.50
37200;BME280;23096;50.892;16.746;2022-07-23T02:45:30;99341.34;;;21.46;55.47
37200;BME280;23096;50.892;16.746;2022-07-23T02:47:58;99330.81;;;21.40;55.53
37200;BME280;23096;50.892;16.746;2022-07-23T02:50:26;99330.70;;;21.41;55.71
37200;BME280;23096;50.892;16.746;2022-07-23T02:52:55;99333.25;;;21.49;55.83
37200;BME280;23096;50.892;16.746;2022-07-23T02:55:23;99328.02;;;21.54;55.83
37200;BME280;23096;50.892;16.746;2022-07-23T02:57:49;99331.23;;;21.58;55.88
37200;BME280;23096;50.892;16.746;2022-07-23T03:00:16;99329.70;;;21.61;55.90
37200;BME280;23096;50.892;16.746;2022-07-23T03:02:43;99326.94;;;21.62;55.93
37200;BME280;23096;50.892;16.746;2022-07-23T03:05:09;99335.30;;;21.68;55.97
37200;BME280;23096;50.892;16.746;2022-07-23T03:07:36;99333.75;;;21.71;55.95
37200;BME280;23096;50.892;16.746;2022-07-23T03:10:04;99329.94;;;21.75;55.98
37200;BME280;23096;50.892;16.746;2022-07-23T03:12:30;99326.27;;;21.77;55.96
37200;BME280;23096;50.892;16.746;2022-07-23T03:14:56;99330.91;;;21.79;55.91
37200;BME280;23096;50.892;16.746;2022-07-23T03:17:22;99327.80;;;21.80;55.93
37200;BME280;23096;50.892;16.746;2022-07-23T03:19:48;99334.58;;;21.82;55.93
37200;BME280;23096;50.892;16.746;2022-07-23T03:22:14;99331.39;;;21.85;55.99
37200;BME280;23096;50.892;16.746;2022-07-23T03:24:41;99338.55;;;21.88;55.98
37200;BME280;23096;50.892;16.746;2022-07-23T03:27:25;99334.35;;;21.91;56.01
37200;BME280;23096;50.892;16.746;2022-07-23T03:29:55;99339.71;;;21.95;55.98
37200;BME280;23096;50.892;16.746;2022-07-23T03:32:24;99337.34;;;21.98;55.95
37200;BME280;23096;50.892;16.746;2022-07-23T03:34:51;99336.52;;;22.03;55.97
37200;BME280;23096;50.892;16.746;2022-07-23T03:37:18;99340.78;;;22.10;55.98
37200;BME280;23096;50.892;16.746;2022-07-23T03:39:45;99335.56;;;22.15;55.94
37200;BME280;23096;50.892;16.746;2022-07-23T03:42:12;99338.52;;;22.22;55.88
37200;BME280;23096;50.892;16.746;2022-07-23T03:44:38;99338.53;;;22.28;55.85
37200;BME280;23096;50.892;16.746;2022-07-23T03:47:05;99342.95;;;22.33;55.79
37200;BME280;23096;50.892;16.746;2022-07-23T03:49:32;99341.40;;;22.36;55.77
37200;BME280;23096;50.892;16.746;2022-07-23T03:51:58;99340.19;;;22.40;55.68
37200;BME280;23096;50.892;16.746;2022-07-23T03:54:25;99340.56;;;22.41;55.62
37200;BME280;23096;50.892;16.746;2022-07-23T03:56:51;99333.39;;;22.43;55.58
37200;BME280;23096;50.892;16.746;2022-07-23T03:59:17;99330.66;;;22.45;55.50
37200;BME280;23096;50.892;16.746;2022-07-23T04:01:43;99332.30;;;22.46;55.49
37200;BME280;23096;50.892;16.746;2022-07-23T04:04:10;99325.98;;;22.48;55.47
37200;BME280;23096;50.892;16.746;2022-07-23T04:06:37;99318.45;;;22.49;55.44
37200;BME280;23096;50.892;16.746;2022-07-23T04:09:03;99316.66;;;22.50;55.39
37200;BME280;23096;50.892;16.746;2022-07-23T04:11:31;99312.87;;;22.48;55.41
37200;BME280;23096;50.892;16.746;2022-07-23T04:13:57;99312.98;;;22.47;55.34
37200;BME280;23096;50.892;16.746;2022-07-23T04:16:24;99316.45;;;22.42;55.32
37200;BME280;23096;50.892;16.746;2022-07-23T04:18:50;99312.63;;;22.40;55.34
37200;BME280;23096;50.892;16.746;2022-07-23T04:21:18;99302.03;;;22.36;55.37
37200;BME280;23096;50.892;16.746;2022-07-23T04:23:45;99304.55;;;22.32;55.34
37200;BME280;23096;50.892;16.746;2022-07-23T04:26:11;99302.03;;;22.25;55.38
37200;BME280;23096;50.892;16.746;2022-07-23T04:28:37;99304.06;;;22.21;55.52
37200;BME280;23096;50.892;16.746;2022-07-23T04:31:04;99302.60;;;22.23;55.66
37200;BME280;23096;50.892;16.746;2022-07-23T04:33:30;99308.10;;;22.25;55.72
37200;BME280;23096;50.892;16.746;2022-07-23T04:35:58;99301.45;;;22.27;55.81
37200;BME280;23096;50.892;16.746;2022-07-23T04:38:24;99302.16;;;22.29;55.84
37200;BME280;23096;50.892;16.746;2022-07-23T04:40:52;99300.25;;;22.31;55.86
37200;BME280;23096;50.892;16.746;2022-07-23T04:43:19;99291.06;;;22.31;55.91
37200;BME280;23096;50.892;16.746;2022-07-23T04:45:47;99288.44;;;22.31;55.96
37200;BME280;23096;50.892;16.746;2022-07-23T04:48:14;99281.05;;;22.30;56.02
37200;BME280;23096;50.892;16.746;2022-07-23T04:50:41;99278.06;;;22.29;56.09
37200;BME280;23096;50.892;16.746;2022-07-23T04:53:10;99274.38;;;22.32;56.16
37200;BME280;23096;50.892;16.746;2022-07-23T04:55:36;99270.66;;;22.34;56.24
37200;BME280;23096;50.892;16.746;2022-07-23T04:58:03;99266.72;;;22.34;56.26
37200;BME280;23096;50.892;16.746;2022-07-23T05:00:30;99265.41;;;22.34;56.28
37200;BME280;23096;50.892;16.746;2022-07-23T05:02:57;99262.56;;;22.32;56.33
37200;BME280;23096;50.892;16.746;2022-07-23T05:05:23;99252.89;;;22.32;56.41
37200;BME280;23096;50.892;16.746;2022-07-23T05:07:49;99253.59;;;22.34;56.47
37200;BME280;23096;50.892;16.746;2022-07-23T05:10:16;99257.17;;;22.33;56.48
37200;BME280;23096;50.892;16.746;2022-07-23T05:12:42;99252.77;;;22.34;56.52
37200;BME280;23096;50.892;16.746;2022-07-23T05:15:08;99248.59;;;22.31;56.55
37200;BME280;23096;50.892;16.746;2022-07-23T05:17:35;99248.84;;;22.34;56.56
37200;BME280;23096;50.892;16.746;2022-07-23T05:20:02;99241.19;;;22.36;56.63
37200;BME280;23096;50.892;16.746;2022-07-23T05:22:29;99238.92;;;22.37;56.64
37200;BME280;23096;50.892;16.746;2022-07-23T05:24:55;99235.94;;;22.36;56.62
37200;BME280;23096;50.892;16.746;2022-07-23T05:27:22;99237.24;;;22.36;56.65
37200;BME280;23096;50.892;16.746;2022-07-23T05:29:48;99223.63;;;22.37;56.64
37200;BME280;23096;50.892;16.746;2022-07-23T05:32:14;99218.88;;;22.36;56.71
37200;BME280;23096;50.892;16.746;2022-07-23T05:34:42;99214.33;;;22.38;56.72
37200;BME280;23096;50.892;16.746;2022-07-23T05:37:08;99214.45;;;22.37;56.65
37200;BME280;23096;50.892;16.746;2022-07-23T05:39:35;99208.40;;;22.31;56.61
37200;BME280;23096;50.892;16.746;2022-07-23T05:42:01;99210.44;;;22.27;56.63
37200;BME280;23096;50.892;16.746;2022-07-23T05:44:27;99212.94;;;22.23;56.69
37200;BME280;23096;50.892;16.746;2022-07-23T05:46:53;99206.70;;;22.24;56.80
37200;BME280;23096;50.892;16.746;2022-07-23T05:49:21;99209.61;;;22.27;56.90
37200;BME280;23096;50.892;16.746;2022-07-23T05:51:58;99206.38;;;22.29;56.98
37200;BME280;23096;50.892;16.746;2022-07-23T05:54:29;99207.20;;;22.29;57.04
37200;BME280;23096;50.892;16.746;2022-07-23T05:56:55;99204.25;;;22.28;57.14
37200;BME280;23096;50.892;16.746;2022-07-23T05:59:21;99211.84;;;22.31;57.26
37200;BME280;23096;50.892;16.746;2022-07-23T06:01:47;99213.05;;;22.33;57.35
37200;BME280;23096;50.892;16.746;2022-07-23T06:04:15;99217.56;;;22.36;57.45
37200;BME280;23096;50.892;16.746;2022-07-23T06:06:43;99214.81;;;22.38;57.52
37200;BME280;23096;50.892;16.746;2022-07-23T06:09:10;99221.97;;;22.42;57.59
37200;BME280;23096;50.892;16.746;2022-07-23T06:11:38;99225.66;;;22.45;57.62
37200;BME280;23096;50.892;16.746;2022-07-23T06:14:05;99223.47;;;22.50;57.65
37200;BME280;23096;50.892;16.746;2022-07-23T06:16:33;99219.16;;;22.54;57.65
37200;BME280;23096;50.892;16.746;2022-07-23T06:18:59;99219.26;;;22.58;57.66
37200;BME280;23096;50.892;16.746;2022-07-23T06:21:26;99215.90;;;22.62;57.62
37200;BME280;23096;50.892;16.746;2022-07-23T06:23:52;99210.77;;;22.66;57.64
37200;BME280;23096;50.892;16.746;2022-07-23T06:26:18;99207.87;;;22.69;57.61
37200;BME280;23096;50.892;16.746;2022-07-23T06:28:44;99212.52;;;22.71;57.57
37200;BME280;23096;50.892;16.746;2022-07-23T06:31:12;99206.68;;;22.73;57.59
37200;BME280;23096;50.892;16.746;2022-07-23T06:33:38;99203.31;;;22.77;57.58
37200;BME280;23096;50.892;16.746;2022-07-23T06:36:04;99197.66;;;22.82;57.58
37200;BME280;23096;50.892;16.746;2022-07-23T06:38:30;99191.67;;;22.85;57.53
37200;BME280;23096;50.892;16.746;2022-07-23T06:40:56;99186.42;;;22.85;57.46
37200;BME280;23096;50.892;16.746;2022-07-23T06:43:23;99196.92;;;22.85;57.42
37200;BME280;23096;50.892;16.746;2022-07-23T06:45:51;99188.44;;;22.87;57.37
37200;BME280;23096;50.892;16.746;2022-07-23T06:48:17;99187.95;;;22.88;57.33
37200;BME280;23096;50.892;16.746;2022-07-23T06:50:43;99185.20;;;22.89;57.28
37200;BME280;23096;50.892;16.746;2022-07-23T06:53:09;99186.88;;;22.90;57.23
37200;BME280;23096;50.892;16.746;2022-07-23T06:55:37;99188.52;;;22.91;57.26
37200;BME280;23096;50.892;16.746;2022-07-23T06:58:04;99187.08;;;22.93;57.33
37200;BME280;23096;50.892;16.746;2022-07-23T07:00:31;99191.47;;;22.98;57.36
37200;BME280;23096;50.892;16.746;2022-07-23T07:02:58;99193.36;;;23.02;57.37
37200;BME280;23096;50.892;16.746;2022-07-23T07:05:24;99192.03;;;23.07;57.38
37200;BME280;23096;50.892;16.746;2022-07-23T07:07:52;99191.42;;;23.09;57.40
37200;BME280;23096;50.892;16.746;2022-07-23T07:10:18;99187.93;;;23.14;57.50
37200;BME280;23096;50.892;16.746;2022-07-23T07:12:45;99190.18;;;23.19;57.55
37200;BME280;23096;50.892;16.746;2022-07-23T07:15:11;99183.20;;;23.24;57.59
37200;BME280;23096;50.892;16.746;2022-07-23T07:17:37;99183.02;;;23.31;57.65
37200;BME280;23096;50.892;16.746;2022-07-23T07:20:04;99177.26;;;23.37;57.64
37200;BME280;23096;50.892;16.746;2022-07-23T07:22:31;99183.29;;;23.43;57.67
37200;BME280;23096;50.892;16.746;2022-07-23T07:24:57;99173.91;;;23.50;57.64
37200;BME280;23096;50.892;16.746;2022-07-23T07:27:23;99172.41;;;23.58;57.62
37200;BME280;23096;50.892;16.746;2022-07-23T07:29:49;99173.34;;;23.62;57.53
37200;BME280;23096;50.892;16.746;2022-07-23T07:32:15;99171.11;;;23.67;57.52
37200;BME280;23096;50.892;16.746;2022-07-23T07:34:42;99164.28;;;23.70;57.44
37200;BME280;23096;50.892;16.746;2022-07-23T07:37:08;99166.16;;;23.74;57.38
37200;BME280;23096;50.892;16.746;2022-07-23T07:39:34;99165.40;;;23.78;57.33
37200;BME280;23096;50.892;16.746;2022-07-23T07:42:00;99163.23;;;23.83;57.31
37200;BME280;23096;50.892;16.746;2022-07-23T07:44:26;99154.09;;;23.87;57.25
37200;BME280;23096;50.892;16.746;2022-07-23T07:46:52;99155.64;;;23.89;57.20
37200;BME280;23096;50.892;16.746;2022-07-23T07:49:18;99153.56;;;23.93;57.13
37200;BME280;23096;50.892;16.746;2022-07-23T07:51:45;99151.47;;;23.97;57.07
37200;BME280;23096;50.892;16.746;2022-07-23T07:54:12;99152.65;;;23.98;57.03
37200;BME280;23096;50.892;16.746;2022-07-23T07:56:38;99153.34;;;24.00;57.00
37200;BME280;23096;50.892;16.746;2022-07-23T07:59:04;99158.70;;;24.04;56.97
37200;BME280;23096;50.892;16.746;2022-07-23T08:01:31;99161.03;;;24.07;56.92
37200;BME280;23096;50.892;16.746;2022-07-23T08:03:57;99158.36;;;24.13;56.92
37200;BME280;23096;50.892;16.746;2022-07-23T08:06:23;99157.53;;;24.22;56.95
37200;BME280;23096;50.892;16.746;2022-07-23T08:08:49;99157.02;;;24.33;56.97
37200;BME280;23096;50.892;16.746;2022-07-23T08:11:16;99155.78;;;24.46;56.95
37200;BME280;23096;50.892;16.746;2022-07-23T08:13:43;99143.31;;;24.58;56.88
37200;BME280;23096;50.892;16.746;2022-07-23T08:16:11;99149.32;;;24.74;56.76
37200;BME280;23096;50.892;16.746;2022-07-23T08:18:39;99144.91;;;24.88;56.66
37200;BME280;23096;50.892;16.746;2022-07-23T08:21:05;99140.86;;;25.04;56.56
37200;BME280;23096;50.892;16.746;2022-07-23T08:23:31;99143.85;;;25.19;56.42
37200;BME280;23096;50.892;16.746;2022-07-23T08:25:57;99138.67;;;25.37;56.30
37200;BME280;23096;50.892;16.746;2022-07-23T08:28:25;99139.83;;;25.52;56.07
37200;BME280;23096;50.892;16.746;2022-07-23T08:30:52;99141.33;;;25.69;55.84
37200;BME280;23096;50.892;16.746;2022-07-23T08:33:18;99144.63;;;25.85;55.58
37200;BME280;23096;50.892;16.746;2022-07-23T08:35:47;99134.88;;;25.95;55.24
37200;BME280;23096;50.892;16.746;2022-07-23T08:38:17;99139.23;;;26.00;54.87
37200;BME280;23096;50.892;16.746;2022-07-23T08:40:50;99136.27;;;26.03;54.49
37200;BME280;23096;50.892;16.746;2022-07-23T08:43:19;99138.58;;;26.02;54.09
37200;BME280;23096;50.892;16.746;2022-07-23T08:45:52;99136.77;;;26.03;53.85
37200;BME280;23096;50.892;16.746;2022-07-23T08:48:22;99140.43;;;26.06;53.68
37200;BME280;23096;50.892;16.746;2022-07-23T08:50:51;99145.09;;;26.12;53.52
37200;BME280;23096;50.892;16.746;2022-07-23T08:53:21;99147.33;;;26.20;53.41
37200;BME280;23096;50.892;16.746;2022-07-23T08:55:52;99144.59;;;26.30;53.35
37200;BME280;23096;50.892;16.746;2022-07-23T08:58:25;99143.50;;;26.37;53.21
37200;BME280;23096;50.892;16.746;2022-07-23T09:00:51;99141.91;;;26.44;53.13
37200;BME280;23096;50.892;16.746;2022-07-23T09:03:20;99136.72;;;26.56;53.17
37200;BME280;23096;50.892;16.746;2022-07-23T09:05:50;99126.58;;;26.66;53.05
37200;BME280;23096;50.892;16.746;2022-07-23T09:08:20;99132.70;;;26.70;52.96
37200;BME280;23096;50.892;16.746;2022-07-23T09:10:57;99138.85;;;26.75;52.94
37200;BME280;23096;50.892;16.746;2022-07-23T09:13:33;99140.52;;;26.76;52.91
37200;BME280;23096;50.892;16.746;2022-07-23T09:16:10;99138.70;;;26.76;52.82
37200;BME280;23096;50.892;16.746;2022-07-23T09:26:40;99152.08;;;26.79;52.65
37200;BME280;23096;50.892;16.746;2022-07-23T09:29:19;99153.45;;;26.83;52.63
37200;BME280;23096;50.892;16.746;2022-07-23T09:31:53;99152.80;;;26.85;52.53
37200;BME280;23096;50.892;16.746;2022-07-23T09:37:16;99153.50;;;26.95;52.44
37200;BME280;23096;50.892;16.746;2022-07-23T09:39:44;99142.97;;;27.00;52.36
37200;BME280;23096;50.892;16.746;2022-07-23T09:42:22;99149.59;;;27.04;52.25
37200;BME280;23096;50.892;16.746;2022-07-23T09:44:55;99144.62;;;27.05;52.18
37200;BME280;23096;50.892;16.746;2022-07-23T09:47:23;99149.30;;;27.07;52.10
37200;BME280;23096;50.892;16.746;2022-07-23T09:50:03;99146.30;;;27.06;52.06
37200;BME280;23096;50.892;16.746;2022-07-23T09:52:34;99157.17;;;27.03;52.05
37200;BME280;23096;50.892;16.746;2022-07-23T09:55:04;99151.57;;;27.02;52.10
37200;BME280;23096;50.892;16.746;2022-07-23T09:57:32;99150.09;;;27.03;52.10
37200;BME280;23096;50.892;16.746;2022-07-23T10:00:00;99157.69;;;27.06;52.14
37200;BME280;23096;50.892;16.746;2022-07-23T10:13:04;99194.08;;;26.46;53.16
37200;BME280;23096;50.892;16.746;2022-07-23T10:15:41;99189.18;;;26.15;53.48
37200;BME280;23096;50.892;16.746;2022-07-23T10:18:10;99198.73;;;25.85;53.72
37200;BME280;23096;50.892;16.746;2022-07-23T10:20:38;99203.72;;;25.46;54.23
37200;BME280;23096;50.892;16.746;2022-07-23T10:31:26;99260.86;;;24.59;56.50
37200;BME280;23096;50.892;16.746;2022-07-23T10:37:20;99262.44;;;23.86;56.67
37200;BME280;23096;50.892;16.746;2022-07-23T10:42:44;99264.99;;;23.09;57.40
37200;BME280;23096;50.892;16.746;2022-07-23T10:45:30;99267.27;;;22.82;57.92
37200;BME280;23096;50.892;16.746;2022-07-23T10:48:17;99263.65;;;22.62;58.33
37200;BME280;23096;50.892;16.746;2022-07-23T10:51:11;99263.11;;;22.47;58.92
37200;BME280;23096;50.892;16.746;2022-07-23T10:53:53;99256.34;;;22.33;59.30
37200;BME280;23096;50.892;16.746;2022-07-23T10:59:25;99236.43;;;22.25;60.15
37200;BME280;23096;50.892;16.746;2022-07-23T11:01:51;99244.66;;;22.20;60.67
37200;BME280;23096;50.892;16.746;2022-07-23T11:04:17;99231.66;;;22.18;61.10
37200;BME280;23096;50.892;16.746;2022-07-23T11:09:28;99222.01;;;22.30;61.73
37200;BME280;23096;50.892;16.746;2022-07-23T11:15:12;99218.78;;;22.32;62.19
37200;BME280;23096;50.892;16.746;2022-07-23T11:20:22;99221.41;;;22.10;62.68
37200;BME280;23096;50.892;16.746;2022-07-23T11:22:51;99218.20;;;22.06;62.91
37200;BME280;23096;50.892;16.746;2022-07-23T11:28:08;99214.88;;;22.04;63.59
37200;BME280;23096;50.892;16.746;2022-07-23T11:30:39;99202.72;;;22.09;63.82
37200;BME280;23096;50.892;16.746;2022-07-23T11:35:45;99214.28;;;22.12;64.52
37200;BME280;23096;50.892;16.746;2022-07-23T11:38:18;99212.59;;;22.16;64.83
37200;BME280;23096;50.892;16.746;2022-07-23T11:40:53;99202.06;;;22.22;65.09
37200;BME280;23096;50.892;16.746;2022-07-23T11:43:18;99197.32;;;22.27;65.28
37200;BME280;23096;50.892;16.746;2022-07-23T11:45:48;99187.28;;;22.32;65.48
37200;BME280;23096;50.892;16.746;2022-07-23T11:50:53;99182.47;;;22.43;65.66
37200;BME280;23096;50.892;16.746;2022-07-23T11:53:26;99185.06;;;22.49;65.81
37200;BME280;23096;50.892;16.746;2022-07-23T11:56:11;99186.93;;;22.58;65.94
37200;BME280;23096;50.892;16.746;2022-07-23T11:58:38;99183.78;;;22.70;66.14
37200;BME280;23096;50.892;16.746;2022-07-23T12:01:05;99188.34;;;22.83;66.29
37200;BME280;23096;50.892;16.746;2022-07-23T12:03:32;99194.23;;;22.96;66.37
37200;BME280;23096;50.892;16.746;2022-07-23T12:05:59;99197.30;;;23.07;66.45
37200;BME280;23096;50.892;16.746;2022-07-23T12:08:26;99207.95;;;23.21;66.56
37200;BME280;23096;50.892;16.746;2022-07-23T12:10:52;99214.44;;;23.32;66.59
37200;BME280;23096;50.892;16.746;2022-07-23T12:13:20;99219.84;;;23.46;66.68
37200;BME280;23096;50.892;16.746;2022-07-23T12:15:50;99202.72;;;23.62;66.80
37200;BME280;23096;50.892;16.746;2022-07-23T12:18:23;99198.88;;;23.81;66.84
37200;BME280;23096;50.892;16.746;2022-07-23T12:20:54;99194.48;;;24.01;66.86
37200;BME280;23096;50.892;16.746;2022-07-23T12:23:26;99183.09;;;24.26;67.02
37200;BME280;23096;50.892;16.746;2022-07-23T12:25:54;99191.34;;;24.56;66.96
37200;BME280;23096;50.892;16.746;2022-07-23T12:28:27;99183.29;;;24.77;66.78
37200;BME280;23096;50.892;16.746;2022-07-23T12:30:55;99186.03;;;24.95;66.48
37200;BME280;23096;50.892;16.746;2022-07-23T12:33:29;99184.12;;;25.11;66.22
37200;BME280;23096;50.892;16.746;2022-07-23T12:36:03;99181.23;;;25.28;65.99
37200;BME280;23096;50.892;16.746;2022-07-23T12:38:40;99173.35;;;25.42;65.73
37200;BME280;23096;50.892;16.746;2022-07-23T12:41:10;99168.31;;;25.62;65.48
37200;BME280;23096;50.892;16.746;2022-07-23T12:43:40;99168.67;;;25.81;65.13
37200;BME280;23096;50.892;16.746;2022-07-23T12:48:51;99163.81;;;26.18;64.49
37200;BME280;23096;50.892;16.746;2022-07-23T12:53:58;99168.29;;;26.40;63.81
37200;BME280;23096;50.892;16.746;2022-07-23T12:56:36;99165.90;;;26.51;63.51
37200;BME280;23096;50.892;16.746;2022-07-23T12:59:06;99164.01;;;26.61;63.23
37200;BME280;23096;50.892;16.746;2022-07-23T13:01:38;99154.36;;;26.74;63.01
37200;BME280;23096;50.892;16.746;2022-07-23T13:04:20;99155.73;;;26.78;62.59
37200;BME280;23096;50.892;16.746;2022-07-23T13:06:50;99154.57;;;26.81;62.07
37200;BME280;23096;50.892;16.746;2022-07-23T13:09:20;99164.10;;;26.73;61.57
37200;BME280;23096;50.892;16.746;2022-07-23T13:11:52;99167.92;;;26.75;61.32
37200;BME280;23096;50.892;16.746;2022-07-23T13:14:20;99181.80;;;26.77;60.99
37200;BME280;23096;50.892;16.746;2022-07-23T13:16:50;99179.88;;;26.83;60.72
37200;BME280;23096;50.892;16.746;2022-07-23T13:19:17;99177.94;;;26.93;60.42
37200;BME280;23096;50.892;16.746;2022-07-23T13:21:44;99176.34;;;27.01;60.16
37200;BME280;23096;50.892;16.746;2022-07-23T13:24:12;99183.01;;;27.09;59.85
37200;BME280;23096;50.892;16.746;2022-07-23T13:26:39;99186.03;;;27.18;59.45
37200;BME280;23096;50.892;16.746;2022-07-23T13:29:06;99180.14;;;27.28;59.29
37200;BME280;23096;50.892;16.746;2022-07-23T13:31:32;99181.02;;;27.37;58.84
37200;BME280;23096;50.892;16.746;2022-07-23T13:33:59;99180.20;;;27.41;58.44
37200;BME280;23096;50.892;16.746;2022-07-23T13:36:25;99178.56;;;27.40;58.02
37200;BME280;23096;50.892;16.746;2022-07-23T13:38:51;99186.50;;;27.40;57.62
37200;BME280;23096;50.892;16.746;2022-07-23T13:41:18;99184.17;;;27.41;57.35
37200;BME280;23096;50.892;16.746;2022-07-23T13:43:45;99175.58;;;27.43;57.06
37200;BME280;23096;50.892;16.746;2022-07-23T13:46:11;99173.95;;;27.46;56.88
37200;BME280;23096;50.892;16.746;2022-07-23T13:48:37;99175.63;;;27.47;56.57
37200;BME280;23096;50.892;16.746;2022-07-23T13:51:03;99177.27;;;27.48;56.30
37200;BME280;23096;50.892;16.746;2022-07-23T13:53:30;99180.92;;;27.51;56.11
37200;BME280;23096;50.892;16.746;2022-07-23T13:55:56;99189.21;;;27.56;56.21